KDAA/DAA METAR and TAF weather

Enter ICAO airport designator
Station Type Date Time Source
KDAA METAR 2022/05/24 11:56 UTC NOAA

KDAA 241156Z AUTO 00000KT 10SM BKN032 OVC039 15/15 A3021 RMK AO2 RAE38DZB38E49 SLP233 P0003 60026 70030 T01530145 10153 20141 53018


Station Type Date Time Source
KDAA Decoded METAR 2022/05/24 11:56 UTC NOAA

Fort Belvoir, VA, United States (KDAA) 38-43N 077-11W
May 24, 2022 - 07:56 AM EDT / 2022.05.24 1156 UTC
Wind: Calm:0
Visibility: 10 mile(s):0
Sky conditions: overcast
Precipitation last hour: 0.03 inches
Temperature: 59.5 F (15.3 C)
Dew Point: 58.1 F (14.5 C)
Relative Humidity: 94%
Pressure (altimeter): 30.21 in. Hg (1023 hPa)
Pressure tendency: 0.05 inches (1.8 hPa) higher than three hours ago
ob: KDAA 241156Z AUTO 00000KT 10SM BKN032 OVC039 15/15 A3021 RMK AO2 RAE38DZB38E49 SLP233 P0003 60026 70030 T01530145 10153 20141 53018
cycle: 12

Station Type Date Time Source
KDAA TAF 2022/05/24 12:07 UTC NOAA

TAF KDAA 241200Z 2412/2518 03006KT 8000 -RA FEW009 BKN016 OVC030 QNH3020INS
TEMPO 2412/2415 BKN009 OVC030
BECMG 2414/2415 06006KT 8000 -RA OVC007 QNH3022INS
BECMG 2420/2421 09009KT 9999 NSW OVC010 QNH3022INS
BECMG 2502/2503 VRB06KT 8000 BR FEW006 SCT010 OVC020 QNH3025INS
BECMG 2508/2509 VRB06KT 8000 BR OVC006 QNH3025INS
BECMG 2513/2514 VRB06KT 9000 BR OVC015 QNH3029INS TX16/2420Z TN12/2508Z

Example: see airport list